createdAt,value
2018-12-25T00:00:38.495Z,2.71
2018-12-25T00:01:38.489Z,2.75
2018-12-25T00:02:38.462Z,2.83
2018-12-25T00:03:38.457Z,2.85
2018-12-25T00:04:38.463Z,2.80
2018-12-25T00:05:45.528Z,2.75
2018-12-25T00:06:38.464Z,2.82
2018-12-25T00:07:38.409Z,2.90
2018-12-25T00:08:38.407Z,2.86
2018-12-25T00:09:38.395Z,2.92
2018-12-25T00:10:45.979Z,2.80
2018-12-25T00:11:38.404Z,2.85
2018-12-25T00:12:38.357Z,2.80
2018-12-25T00:13:38.344Z,2.86
2018-12-25T00:14:38.347Z,2.87
2018-12-25T00:15:38.389Z,2.89
2018-12-25T00:16:38.368Z,3.00
2018-12-25T00:17:38.329Z,2.98
2018-12-25T00:18:38.282Z,2.92
2018-12-25T00:19:38.300Z,2.95
2018-12-25T00:20:38.280Z,2.93
2018-12-25T00:21:38.279Z,3.00
2018-12-25T00:22:38.263Z,2.90
2018-12-25T00:23:38.232Z,3.04
2018-12-25T00:24:38.220Z,3.00
2018-12-25T00:25:38.218Z,3.01
2018-12-25T00:26:38.220Z,3.03
2018-12-25T00:27:38.211Z,3.00
2018-12-25T00:28:38.195Z,3.00
2018-12-25T00:29:38.169Z,3.00
2018-12-25T00:30:38.175Z,3.03
2018-12-25T00:31:38.197Z,3.03
2018-12-25T00:32:46.967Z,3.01
2018-12-25T00:33:39.135Z,3.01
2018-12-25T00:34:38.142Z,3.05
2018-12-25T00:35:38.117Z,3.04
2018-12-25T00:36:38.118Z,2.95
2018-12-25T00:37:38.081Z,3.00
2018-12-25T00:38:38.101Z,3.00
2018-12-25T00:39:38.081Z,3.13
2018-12-25T00:40:38.057Z,3.03
2018-12-25T00:41:38.086Z,3.04
2018-12-25T00:42:38.026Z,2.98
2018-12-25T00:43:38.027Z,3.03
2018-12-25T00:44:38.027Z,3.10
2018-12-25T00:45:38.011Z,2.98
2018-12-25T00:46:38.021Z,3.01
2018-12-25T00:47:37.973Z,3.14
2018-12-25T00:48:37.965Z,3.13
2018-12-25T00:49:37.963Z,3.04
2018-12-25T00:50:37.970Z,3.00
2018-12-25T00:51:37.966Z,2.98
2018-12-25T00:52:37.928Z,3.07
2018-12-25T00:53:37.943Z,3.13
2018-12-25T00:54:37.909Z,3.00
2018-12-25T00:55:37.921Z,3.04
2018-12-25T00:56:37.907Z,3.10
2018-12-25T00:57:37.912Z,3.11
2018-12-25T00:58:37.879Z,3.18
2018-12-25T00:59:37.864Z,3.13
2018-12-25T01:00:37.838Z,3.13
2018-12-25T01:01:37.855Z,3.01
2018-12-25T01:02:37.834Z,3.01
2018-12-25T01:03:37.824Z,3.10
2018-12-25T01:04:37.838Z,3.07
2018-12-25T01:05:37.788Z,3.05
2018-12-25T01:06:37.803Z,3.11
2018-12-25T01:07:37.780Z,3.03
2018-12-25T01:08:37.775Z,3.08
2018-12-25T01:09:37.774Z,3.07
2018-12-25T01:10:37.751Z,3.08
2018-12-25T01:11:37.765Z,3.18
2018-12-25T01:12:37.768Z,3.16
2018-12-25T01:13:37.723Z,3.18
2018-12-25T01:14:37.698Z,3.14
2018-12-25T01:15:37.713Z,3.19
2018-12-25T01:16:37.699Z,3.25
2018-12-25T01:17:37.658Z,3.23
2018-12-25T01:18:37.660Z,3.26
2018-12-25T01:19:37.653Z,3.19
2018-12-25T01:20:37.648Z,3.19
2018-12-25T01:21:37.646Z,3.14
2018-12-25T01:22:37.602Z,3.14
2018-12-25T01:23:37.609Z,3.14
2018-12-25T01:24:37.587Z,3.19
2018-12-25T01:25:37.593Z,3.19
2018-12-25T01:26:37.590Z,3.23
2018-12-25T01:27:37.557Z,3.22
2018-12-25T01:28:37.577Z,3.21
2018-12-25T01:29:37.541Z,3.18
2018-12-25T01:30:37.555Z,3.26
2018-12-25T01:31:37.689Z,3.28
2018-12-25T01:32:37.535Z,3.22
2018-12-25T01:33:37.498Z,3.16
2018-12-25T01:34:37.488Z,3.26
2018-12-25T01:35:37.469Z,3.28
2018-12-25T01:36:37.476Z,3.25
2018-12-25T01:37:37.470Z,3.22
2018-12-25T01:38:37.463Z,3.19
2018-12-25T01:39:37.433Z,3.25
2018-12-25T01:40:37.417Z,3.22
2018-12-25T01:41:37.420Z,3.28
2018-12-25T01:42:37.400Z,3.26
2018-12-25T01:43:37.416Z,3.21
2018-12-25T01:44:37.405Z,3.28
2018-12-25T01:45:37.377Z,3.21
2018-12-25T01:46:37.397Z,3.13
2018-12-25T01:47:37.350Z,3.22
2018-12-25T01:48:37.336Z,3.22
2018-12-25T01:49:37.317Z,3.19
2018-12-25T01:50:37.328Z,3.19
2018-12-25T01:51:37.317Z,3.14
2018-12-25T01:52:37.350Z,3.25
2018-12-25T01:53:37.308Z,3.22
2018-12-25T01:54:37.276Z,3.19
2018-12-25T01:55:37.254Z,3.25
2018-12-25T01:56:37.260Z,3.22
2018-12-25T01:57:37.264Z,3.26
2018-12-25T01:58:37.244Z,3.21
2018-12-25T01:59:37.236Z,3.23
2018-12-25T02:00:37.215Z,3.25
2018-12-25T02:01:37.193Z,3.22
2018-12-25T02:02:37.221Z,3.19
2018-12-25T02:03:37.176Z,3.29
2018-12-25T02:04:37.195Z,3.23
2018-12-25T02:05:37.162Z,3.22
2018-12-25T02:06:37.153Z,3.26
2018-12-25T02:07:37.138Z,3.29
2018-12-25T02:08:37.138Z,3.29
2018-12-25T02:09:37.109Z,3.23
2018-12-25T02:10:37.119Z,3.23
2018-12-25T02:11:37.108Z,3.22
2018-12-25T02:12:37.130Z,3.23
2018-12-25T02:13:37.063Z,3.28
2018-12-25T02:14:37.070Z,3.21
2018-12-25T02:15:37.055Z,3.26
2018-12-25T02:16:37.056Z,3.32
2018-12-25T02:17:37.078Z,3.32
2018-12-25T02:18:37.012Z,3.25
2018-12-25T02:19:40.348Z,3.29
2018-12-25T02:20:37.014Z,3.26
2018-12-25T02:21:36.996Z,3.31
2018-12-25T02:22:36.998Z,3.40
2018-12-25T02:23:36.979Z,3.25
2018-12-25T02:24:36.986Z,3.41
2018-12-25T02:25:36.955Z,3.41
2018-12-25T02:26:36.947Z,3.41
2018-12-25T02:27:36.954Z,3.40
2018-12-25T02:28:36.924Z,3.36
2018-12-25T02:29:36.903Z,3.40
2018-12-25T02:30:36.914Z,3.47
2018-12-25T02:31:36.874Z,3.42
2018-12-25T02:32:36.886Z,3.47
2018-12-25T02:33:36.864Z,3.42
2018-12-25T02:34:36.984Z,3.44
2018-12-25T02:36:54.421Z,3.45
2018-12-25T02:38:01.502Z,3.45
2018-12-25T02:38:54.472Z,3.42
2018-12-25T02:39:54.372Z,3.40
2018-12-25T02:40:54.340Z,3.45
2018-12-25T02:41:54.324Z,3.42
2018-12-25T02:42:54.339Z,3.41
2018-12-25T02:43:54.405Z,3.53
2018-12-25T02:44:54.326Z,3.58
2018-12-25T02:45:54.335Z,3.51
2018-12-25T02:46:54.355Z,3.53
2018-12-25T02:47:54.303Z,3.56
2018-12-25T02:48:54.291Z,3.50
2018-12-25T02:49:54.273Z,3.45
2018-12-25T02:50:54.260Z,3.53
2018-12-25T02:51:54.278Z,3.53
2018-12-25T02:52:54.278Z,3.53
2018-12-25T02:53:54.250Z,3.63
2018-12-25T02:54:54.212Z,3.50
2018-12-25T02:55:54.199Z,3.58
2018-12-25T02:57:01.819Z,3.58
2018-12-25T02:57:54.859Z,3.53
2018-12-25T02:58:54.150Z,3.55
2018-12-25T03:00:01.856Z,3.62
2018-12-25T03:01:02.233Z,3.59
2018-12-25T03:02:01.279Z,3.68
2018-12-25T03:02:54.126Z,3.63
2018-12-25T03:03:54.089Z,3.65
2018-12-25T03:04:54.095Z,3.66
2018-12-25T03:05:54.085Z,3.63
2018-12-25T03:06:54.084Z,3.60
2018-12-25T03:07:54.087Z,3.66
2018-12-25T03:08:54.037Z,3.66
2018-12-25T03:09:54.150Z,3.69
2018-12-25T03:10:54.026Z,3.66
2018-12-25T03:11:54.106Z,3.59
2018-12-25T03:13:01.267Z,3.68
2018-12-25T03:14:02.921Z,3.63
2018-12-25T03:15:01.114Z,3.69
2018-12-25T03:16:02.045Z,3.63
2018-12-25T03:16:53.980Z,3.59
2018-12-25T03:17:53.997Z,3.63
2018-12-25T03:18:53.949Z,3.73
2018-12-25T03:19:59.891Z,3.60
2018-12-25T03:20:54.918Z,3.66
2018-12-25T03:21:53.902Z,3.66
2018-12-25T03:22:53.924Z,3.66
2018-12-25T03:23:53.883Z,3.68
2018-12-25T03:24:53.890Z,3.66
2018-12-25T03:25:53.882Z,3.66
2018-12-25T03:26:53.863Z,3.58
2018-12-25T03:27:53.886Z,3.66
2018-12-25T03:28:53.849Z,3.66
2018-12-25T03:29:53.827Z,3.62
2018-12-25T03:30:53.838Z,3.59
2018-12-25T03:31:53.809Z,3.69
2018-12-25T03:32:53.827Z,3.68
2018-12-25T03:33:53.797Z,3.65
2018-12-25T03:34:53.788Z,3.62
2018-12-25T03:35:53.754Z,3.65
2018-12-25T03:36:53.757Z,3.66
2018-12-25T03:37:53.768Z,3.66
2018-12-25T03:38:53.741Z,3.70
2018-12-25T03:39:53.750Z,3.77
2018-12-25T03:40:53.726Z,3.77
2018-12-25T03:41:53.709Z,3.70
2018-12-25T03:42:53.742Z,3.83
2018-12-25T03:43:53.680Z,3.77
2018-12-25T03:44:53.672Z,3.70
2018-12-25T03:45:53.660Z,3.74
2018-12-25T03:46:53.640Z,3.77
2018-12-25T03:47:53.667Z,3.76
2018-12-25T03:48:53.697Z,3.77
2018-12-25T03:49:53.631Z,3.76
2018-12-25T03:50:53.603Z,3.76
2018-12-25T03:51:53.591Z,3.74
2018-12-25T03:52:53.612Z,3.80
2018-12-25T03:53:53.579Z,3.77
2018-12-25T03:54:53.599Z,3.80
2018-12-25T03:55:53.557Z,3.77
2018-12-25T03:56:53.552Z,3.84
2018-12-25T03:57:53.563Z,3.84
2018-12-25T03:58:53.530Z,3.81
2018-12-25T03:59:53.519Z,3.88
2018-12-25T04:00:53.521Z,3.78
2018-12-25T04:01:53.499Z,3.87
2018-12-25T04:02:53.519Z,3.77
2018-12-25T04:03:54.464Z,3.84
2018-12-25T04:04:53.517Z,3.81
2018-12-25T04:05:53.450Z,3.83
2018-12-25T04:06:53.460Z,3.91
2018-12-25T04:07:53.470Z,3.84
2018-12-25T04:08:53.417Z,3.96
2018-12-25T04:09:53.426Z,3.92
2018-12-25T04:10:53.393Z,3.91
2018-12-25T04:11:53.381Z,3.96
2018-12-25T04:12:53.409Z,3.94
2018-12-25T04:13:53.373Z,3.99
2018-12-25T04:14:53.358Z,3.95
2018-12-25T04:15:53.349Z,3.95
2018-12-25T04:16:53.340Z,3.96
2018-12-25T04:17:53.341Z,3.94
2018-12-25T04:18:53.307Z,3.95
2018-12-25T04:19:53.366Z,3.94
2018-12-25T04:20:53.367Z,3.94
2018-12-25T04:21:53.341Z,4.04
2018-12-25T04:22:53.960Z,4.02
2018-12-25T04:23:53.346Z,4.02
2018-12-25T04:24:53.338Z,4.06
2018-12-25T04:25:53.334Z,4.02
2018-12-25T04:26:53.307Z,4.05
2018-12-25T04:27:53.238Z,4.10
2018-12-25T04:28:53.213Z,4.04
2018-12-25T04:29:53.245Z,4.08
2018-12-25T04:30:53.186Z,4.06
2018-12-25T04:31:53.178Z,4.04
2018-12-25T04:32:53.222Z,3.98
2018-12-25T04:33:53.158Z,4.06
2018-12-25T04:34:53.167Z,3.98
2018-12-25T04:35:53.129Z,4.02
2018-12-25T04:36:53.133Z,4.02
2018-12-25T04:37:53.109Z,4.02
2018-12-25T04:38:53.111Z,4.01
2018-12-25T04:39:53.100Z,4.10
2018-12-25T04:40:53.086Z,4.06
2018-12-25T04:41:53.078Z,4.06
2018-12-25T04:42:53.065Z,4.05
2018-12-25T04:43:53.082Z,4.01
2018-12-25T04:44:53.057Z,4.05
2018-12-25T04:45:53.898Z,4.06
2018-12-25T04:46:53.028Z,4.05
2018-12-25T04:47:53.017Z,4.06
2018-12-25T04:48:53.025Z,4.05
2018-12-25T04:49:52.996Z,4.04
2018-12-25T04:50:52.987Z,4.02
2018-12-25T04:51:52.992Z,3.99
2018-12-25T04:52:52.986Z,4.08
2018-12-25T04:53:52.947Z,4.04
2018-12-25T04:54:52.937Z,3.99
2018-12-25T04:55:52.948Z,4.02
2018-12-25T04:56:52.928Z,4.01
2018-12-25T04:57:52.899Z,4.01
2018-12-25T04:58:52.919Z,4.02
2018-12-25T04:59:52.891Z,4.14
2018-12-25T05:00:52.865Z,4.06
2018-12-25T05:01:52.875Z,4.12
2018-12-25T05:02:52.843Z,4.10
2018-12-25T05:03:52.864Z,4.02
2018-12-25T05:04:52.822Z,4.12
2018-12-25T05:05:52.828Z,3.98
2018-12-25T05:07:00.856Z,4.05
2018-12-25T05:07:52.783Z,4.06
2018-12-25T05:09:00.831Z,4.02
2018-12-25T05:09:52.779Z,4.04
2018-12-25T05:10:52.750Z,4.14
2018-12-25T05:11:52.752Z,4.14
2018-12-25T05:12:52.753Z,4.12
2018-12-25T05:14:00.860Z,4.10
2018-12-25T05:14:52.731Z,4.08
2018-12-25T05:15:59.766Z,4.06
2018-12-25T05:16:52.695Z,4.14
2018-12-25T05:17:52.684Z,4.02
2018-12-25T05:18:52.692Z,4.02
2018-12-25T05:19:52.658Z,4.01
2018-12-25T05:20:52.668Z,4.06
2018-12-25T05:21:52.645Z,3.98
2018-12-25T05:22:52.643Z,3.99
2018-12-25T05:23:52.644Z,4.04
2018-12-25T05:24:52.613Z,4.04
2018-12-25T05:25:52.623Z,3.98
2018-12-25T05:26:52.618Z,3.95
2018-12-25T05:27:52.613Z,3.94
2018-12-25T05:28:52.659Z,3.96
2018-12-25T05:29:52.566Z,3.96
2018-12-25T05:31:00.109Z,3.99
2018-12-25T05:31:52.577Z,3.92
2018-12-25T05:32:52.536Z,3.98
2018-12-25T05:33:52.539Z,3.87
2018-12-25T05:34:52.547Z,3.92
2018-12-25T05:35:52.511Z,3.91
2018-12-25T05:36:52.502Z,3.84
2018-12-25T05:37:52.501Z,3.86
2018-12-25T05:38:52.486Z,3.84
2018-12-25T05:39:52.487Z,3.92
2018-12-25T05:40:52.459Z,3.96
2018-12-25T05:41:52.437Z,3.81
2018-12-25T05:42:52.448Z,3.94
2018-12-25T05:43:52.439Z,3.80
2018-12-25T05:44:52.426Z,3.87
2018-12-25T05:45:52.403Z,3.84
2018-12-25T05:46:52.378Z,3.81
2018-12-25T05:47:52.362Z,3.77
2018-12-25T05:48:52.369Z,3.84
2018-12-25T05:49:52.346Z,3.84
2018-12-25T05:50:52.338Z,3.86
2018-12-25T05:51:52.334Z,3.87
2018-12-25T05:52:52.318Z,3.84
2018-12-25T05:53:52.328Z,3.92
2018-12-25T05:54:52.291Z,3.83
2018-12-25T05:55:52.294Z,3.86
2018-12-25T05:56:52.273Z,3.83
2018-12-25T05:57:52.271Z,3.99
2018-12-25T05:58:52.266Z,4.02
2018-12-25T05:59:52.239Z,3.99
2018-12-25T06:00:52.237Z,3.91
2018-12-25T06:01:52.240Z,3.91
2018-12-25T06:02:52.246Z,3.92
2018-12-25T06:03:52.240Z,3.94
2018-12-25T06:04:52.198Z,3.98
2018-12-25T06:05:52.181Z,3.92
2018-12-25T06:06:52.168Z,3.99
2018-12-25T06:07:52.168Z,3.95
2018-12-25T06:08:52.168Z,3.95
2018-12-25T06:09:52.167Z,3.94
2018-12-25T06:10:52.135Z,3.98
2018-12-25T06:11:52.153Z,3.96
2018-12-25T06:12:52.116Z,4.04
2018-12-25T06:13:52.122Z,3.95
2018-12-25T06:14:52.080Z,3.98
2018-12-25T06:15:52.082Z,3.96
2018-12-25T06:16:52.057Z,3.95
2018-12-25T06:17:52.607Z,4.02
2018-12-25T06:18:52.064Z,3.98
2018-12-25T06:19:52.055Z,3.99
2018-12-25T06:20:55.248Z,3.98
2018-12-25T06:21:52.036Z,3.96
2018-12-25T06:22:52.018Z,3.94
2018-12-25T06:24:00.088Z,3.99
2018-12-25T06:24:51.993Z,3.99
2018-12-25T06:25:51.986Z,3.95
2018-12-25T06:26:51.968Z,3.99
2018-12-25T06:27:51.986Z,3.98
2018-12-25T06:28:52.000Z,3.98
2018-12-25T06:29:51.951Z,3.99
2018-12-25T06:30:51.925Z,3.99
2018-12-25T06:31:51.897Z,3.98
2018-12-25T06:32:51.895Z,3.94
2018-12-25T06:33:51.958Z,3.95
2018-12-25T06:34:51.876Z,3.95
2018-12-25T06:35:51.863Z,3.98
2018-12-25T06:36:51.858Z,3.95
2018-12-25T06:37:51.864Z,3.95
2018-12-25T06:38:51.867Z,3.99
2018-12-25T06:39:51.843Z,3.95
2018-12-25T06:40:51.822Z,3.96
2018-12-25T06:41:51.804Z,3.99
2018-12-25T06:42:51.802Z,3.94
2018-12-25T06:43:51.815Z,3.94
2018-12-25T06:44:51.788Z,3.94
2018-12-25T06:45:51.761Z,3.96
2018-12-25T06:46:51.751Z,3.99
2018-12-25T06:47:51.728Z,3.96
2018-12-25T06:48:51.745Z,3.94
2018-12-25T06:49:51.756Z,3.96
2018-12-25T06:50:51.703Z,3.96
2018-12-25T06:51:51.701Z,3.96
2018-12-25T06:52:51.714Z,3.96
2018-12-25T06:53:51.690Z,3.99
2018-12-25T06:54:51.696Z,3.96
2018-12-25T06:55:51.673Z,3.95
2018-12-25T06:56:51.691Z,3.99
2018-12-25T06:57:51.650Z,3.96
2018-12-25T06:58:51.639Z,3.95
2018-12-25T06:59:51.636Z,3.98
2018-12-25T07:00:51.633Z,3.96
2018-12-25T07:01:51.593Z,3.95
2018-12-25T07:02:52.563Z,3.96
2018-12-25T07:03:51.577Z,3.94
2018-12-25T07:04:51.581Z,3.95
2018-12-25T07:05:51.552Z,3.94
2018-12-25T07:06:51.564Z,3.87
2018-12-25T07:07:51.568Z,3.96
2018-12-25T07:08:51.523Z,3.96
2018-12-25T07:09:51.577Z,3.92
2018-12-25T07:10:51.581Z,3.88
2018-12-25T07:11:51.495Z,3.87
2018-12-25T07:12:51.481Z,3.91
2018-12-25T07:13:51.471Z,3.94
2018-12-25T07:14:51.479Z,3.96
2018-12-25T07:15:51.463Z,3.95
2018-12-25T07:16:51.448Z,3.94
2018-12-25T07:17:51.438Z,3.88
2018-12-25T07:18:51.423Z,3.81
2018-12-25T07:19:51.432Z,3.87
2018-12-25T07:20:51.411Z,3.80
2018-12-25T07:21:51.396Z,3.84
2018-12-25T07:22:51.377Z,3.91
2018-12-25T07:23:51.391Z,3.83
2018-12-25T07:24:51.392Z,3.78
2018-12-25T07:25:51.344Z,3.83
2018-12-25T07:26:51.336Z,3.91
2018-12-25T07:27:51.335Z,3.84
2018-12-25T07:28:51.655Z,3.84
2018-12-25T07:29:51.326Z,3.86
2018-12-25T07:30:51.294Z,3.78
2018-12-25T07:31:51.285Z,3.81
2018-12-25T07:32:51.298Z,3.86
2018-12-25T07:33:51.264Z,3.80
2018-12-25T07:34:51.281Z,3.80
2018-12-25T07:35:51.324Z,3.80
2018-12-25T07:36:51.244Z,3.76
2018-12-25T07:37:51.209Z,3.76
2018-12-25T07:38:51.230Z,3.86
2018-12-25T07:39:51.232Z,3.76
2018-12-25T07:40:51.197Z,3.77
2018-12-25T07:41:51.168Z,3.76
2018-12-25T07:42:51.161Z,3.73
2018-12-25T07:43:51.143Z,3.78
2018-12-25T07:44:51.176Z,3.77
2018-12-25T07:45:51.146Z,3.73
2018-12-25T07:46:51.127Z,3.76
2018-12-25T07:47:51.129Z,3.83
2018-12-25T07:48:51.156Z,3.74
2018-12-25T07:49:51.108Z,3.77
2018-12-25T07:50:51.082Z,3.77
2018-12-25T07:51:51.075Z,3.78
2018-12-25T07:52:51.068Z,3.63
2018-12-25T07:53:51.067Z,3.76
2018-12-25T07:54:51.049Z,3.78
2018-12-25T07:55:51.645Z,3.77
2018-12-25T07:56:51.025Z,3.77
2018-12-25T07:57:51.008Z,3.76
2018-12-25T07:58:51.005Z,3.80
2018-12-25T07:59:51.025Z,3.77
2018-12-25T08:00:51.019Z,3.86
2018-12-25T08:01:50.971Z,3.81
2018-12-25T08:02:50.974Z,3.88
2018-12-25T08:03:50.937Z,3.83
2018-12-25T08:04:50.949Z,3.86
2018-12-25T08:05:57.995Z,3.81
2018-12-25T08:06:59.059Z,3.81
2018-12-25T08:07:57.948Z,3.87
2018-12-25T08:08:57.949Z,3.83
2018-12-25T08:09:50.890Z,3.78
2018-12-25T08:10:50.877Z,3.83
2018-12-25T08:11:50.856Z,3.83
2018-12-25T08:12:50.842Z,3.92
2018-12-25T08:13:50.850Z,3.91
2018-12-25T08:14:50.846Z,3.95
2018-12-25T08:15:50.818Z,3.91
2018-12-25T08:16:50.819Z,3.95
2018-12-25T08:17:50.807Z,3.96
2018-12-25T08:18:50.783Z,3.96
2018-12-25T08:19:50.790Z,3.95
2018-12-25T08:20:50.760Z,3.94
2018-12-25T08:21:50.771Z,3.94
2018-12-25T08:22:50.742Z,3.96
2018-12-25T08:23:50.770Z,3.92
2018-12-25T08:24:50.746Z,3.95
2018-12-25T08:25:50.740Z,3.99
2018-12-25T08:26:50.697Z,4.08
2018-12-25T08:27:50.711Z,3.99
2018-12-25T08:28:50.695Z,4.05
2018-12-25T08:29:51.223Z,4.05
2018-12-25T08:30:50.674Z,4.06
2018-12-25T08:31:50.655Z,3.99
2018-12-25T08:32:50.633Z,4.06
2018-12-25T08:33:50.627Z,4.08
2018-12-25T08:34:50.639Z,4.02
2018-12-25T08:35:50.614Z,4.10
2018-12-25T08:36:50.591Z,4.14
2018-12-25T08:37:50.580Z,4.17
2018-12-25T08:38:50.560Z,4.20
2018-12-25T08:39:50.563Z,4.22
2018-12-25T08:40:50.555Z,4.20
2018-12-25T08:41:51.448Z,4.19
2018-12-25T08:42:50.528Z,4.23
2018-12-25T08:43:50.515Z,4.20
2018-12-25T08:44:50.573Z,4.23
2018-12-25T08:45:50.499Z,4.28
2018-12-25T08:46:50.484Z,4.19
2018-12-25T08:47:50.484Z,4.14
2018-12-25T08:48:50.470Z,4.24
2018-12-25T08:49:50.512Z,4.14
2018-12-25T08:50:50.472Z,4.34
2018-12-25T08:51:50.437Z,4.26
2018-12-25T08:52:50.426Z,4.40
2018-12-25T08:53:50.412Z,4.24
2018-12-25T08:54:50.422Z,4.31
2018-12-25T08:55:50.417Z,4.34
2018-12-25T08:56:50.375Z,4.26
2018-12-25T08:57:50.403Z,4.34
2018-12-25T08:58:50.421Z,4.35
2018-12-25T08:59:50.346Z,4.32
2018-12-25T09:00:50.346Z,4.35
2018-12-25T09:01:50.319Z,4.38
2018-12-25T09:02:58.287Z,4.37
2018-12-25T09:03:50.308Z,4.37
2018-12-25T09:04:57.518Z,4.34
2018-12-25T09:05:58.354Z,4.38
2018-12-25T09:06:57.341Z,4.42
2018-12-25T09:07:50.260Z,4.48
2018-12-25T09:08:50.259Z,4.38
2018-12-25T09:09:50.228Z,4.38
2018-12-25T09:10:50.240Z,4.41
2018-12-25T09:11:50.226Z,4.42
2018-12-25T09:12:50.242Z,4.40
2018-12-25T09:13:50.208Z,4.37
2018-12-25T09:14:50.185Z,4.44
2018-12-25T09:15:50.184Z,4.37
2018-12-25T09:16:50.181Z,4.48
2018-12-25T09:17:50.160Z,4.48
2018-12-25T09:18:50.145Z,4.48
2018-12-25T09:19:50.129Z,4.41
2018-12-25T09:20:50.136Z,4.52
2018-12-25T09:21:50.098Z,4.55
2018-12-25T09:22:50.103Z,4.48
2018-12-25T09:23:50.080Z,4.58
2018-12-25T09:24:50.078Z,4.52
2018-12-25T09:25:50.094Z,4.49
2018-12-25T09:26:50.067Z,4.55
2018-12-25T09:27:50.065Z,4.52
2018-12-25T09:28:50.041Z,4.52
2018-12-25T09:29:50.019Z,4.67
2018-12-25T09:30:50.061Z,4.70
2018-12-25T09:31:49.999Z,4.62
2018-12-25T09:32:50.025Z,4.67
2018-12-25T09:33:49.984Z,4.70
2018-12-25T09:34:49.982Z,4.70
2018-12-25T09:35:50.840Z,4.66
2018-12-25T09:36:49.978Z,4.68
2018-12-25T09:37:49.948Z,4.66
2018-12-25T09:38:49.960Z,4.73
2018-12-25T09:39:49.951Z,4.73
2018-12-25T09:40:49.950Z,4.86
2018-12-25T09:41:49.919Z,4.86
2018-12-25T09:42:49.900Z,4.92
2018-12-25T09:43:49.926Z,4.84
2018-12-25T09:44:49.903Z,4.86
2018-12-25T09:45:49.931Z,4.84
2018-12-25T09:46:50.810Z,4.92
2018-12-25T09:47:49.939Z,4.92
2018-12-25T09:48:49.909Z,4.97
2018-12-25T09:49:50.847Z,4.93
2018-12-25T09:50:50.016Z,4.90
2018-12-25T09:51:54.539Z,4.82
2018-12-25T09:52:49.833Z,4.92
2018-12-25T09:53:50.265Z,4.97
2018-12-25T09:54:50.325Z,5.00
2018-12-25T09:55:49.847Z,4.99
2018-12-25T09:56:49.756Z,4.99
2018-12-25T09:57:49.769Z,5.00
2018-12-25T09:58:49.797Z,4.99
2018-12-25T09:59:49.718Z,4.99
2018-12-25T10:00:49.730Z,4.99
2018-12-25T10:01:49.709Z,4.97
2018-12-25T10:02:49.688Z,4.99
2018-12-25T10:03:49.681Z,4.99
2018-12-25T10:04:49.677Z,5.07
2018-12-25T10:05:49.691Z,5.02
2018-12-25T10:06:49.657Z,5.10
2018-12-25T10:07:49.626Z,5.08
2018-12-25T10:08:49.636Z,5.10
2018-12-25T10:09:49.617Z,5.10
2018-12-25T10:10:49.621Z,5.08
2018-12-25T10:11:51.307Z,5.12
2018-12-25T10:12:50.267Z,5.08
2018-12-25T10:13:49.664Z,5.10
2018-12-25T10:14:52.541Z,5.07
2018-12-25T10:15:49.620Z,5.28
2018-12-25T10:16:49.968Z,5.30
2018-12-25T10:17:49.528Z,5.25
2018-12-25T10:18:49.515Z,5.23
2018-12-25T10:19:49.529Z,5.20
2018-12-25T10:20:49.552Z,5.21
2018-12-25T10:21:49.514Z,5.18
2018-12-25T10:22:49.493Z,5.17
2018-12-25T10:23:49.474Z,5.17
2018-12-25T10:24:51.329Z,5.17
2018-12-25T10:25:49.454Z,5.20
2018-12-25T10:26:49.453Z,5.32
2018-12-25T10:27:49.442Z,5.41
2018-12-25T10:28:49.429Z,5.41
2018-12-25T10:29:50.440Z,5.41
2018-12-25T10:30:49.411Z,5.41
2018-12-25T10:31:49.387Z,5.54
2018-12-25T10:32:49.372Z,5.57
2018-12-25T10:33:49.348Z,5.71
2018-12-25T10:34:49.377Z,5.68
2018-12-25T10:35:49.357Z,5.73
2018-12-25T10:36:49.340Z,5.68
2018-12-25T10:37:49.362Z,5.71
2018-12-25T10:38:56.562Z,5.62
2018-12-25T10:39:49.379Z,5.57
2018-12-25T10:40:49.313Z,5.51
2018-12-25T10:41:49.322Z,5.50
2018-12-25T10:42:49.301Z,5.44
2018-12-25T10:43:49.307Z,5.44
2018-12-25T10:44:49.239Z,5.62
2018-12-25T10:45:49.324Z,5.69
2018-12-25T10:46:49.259Z,5.71
2018-12-25T10:47:49.197Z,5.53
2018-12-25T10:48:49.192Z,5.59
2018-12-25T10:49:49.188Z,5.57
2018-12-25T10:50:50.303Z,5.71
2018-12-25T10:51:49.160Z,5.66
2018-12-25T10:52:49.154Z,5.75
2018-12-25T10:53:49.144Z,5.80
2018-12-25T10:54:49.178Z,5.76
2018-12-25T10:55:49.150Z,5.90
2018-12-25T10:56:49.131Z,6.07
2018-12-25T10:57:49.125Z,6.14
2018-12-25T10:58:49.095Z,6.20
2018-12-25T10:59:49.078Z,6.08
2018-12-25T11:00:49.076Z,5.94
2018-12-25T11:01:49.089Z,6.12
2018-12-25T11:02:49.073Z,6.39
2018-12-25T11:03:49.033Z,6.35
2018-12-25T11:04:49.045Z,6.52
2018-12-25T11:05:49.019Z,6.39
2018-12-25T11:06:49.050Z,6.16
2018-12-25T11:07:49.011Z,6.09
2018-12-25T11:08:48.999Z,6.05
2018-12-25T11:09:48.982Z,6.02
2018-12-25T11:10:48.968Z,5.94
2018-12-25T11:11:48.975Z,5.89
2018-12-25T11:12:48.972Z,5.91
2018-12-25T11:13:48.967Z,6.17
2018-12-25T11:14:48.953Z,6.22
2018-12-25T11:15:48.910Z,6.19
2018-12-25T11:16:48.922Z,6.38
2018-12-25T11:17:48.926Z,6.36
2018-12-25T11:18:49.270Z,6.39
2018-12-25T11:19:48.894Z,6.36
2018-12-25T11:20:48.889Z,6.49
2018-12-25T11:21:48.895Z,6.51
2018-12-25T11:22:48.850Z,6.46
2018-12-25T11:23:48.847Z,6.33
2018-12-25T11:24:48.859Z,6.30
2018-12-25T11:25:48.829Z,6.05
2018-12-25T11:26:49.959Z,6.08
2018-12-25T11:27:48.788Z,6.01
2018-12-25T11:28:48.834Z,5.99
2018-12-25T11:29:48.779Z,5.94
2018-12-25T11:30:48.795Z,5.91
2018-12-25T11:31:48.774Z,5.86
2018-12-25T11:32:48.757Z,5.83
2018-12-25T11:33:48.754Z,5.94
2018-12-25T11:34:48.715Z,5.94
2018-12-25T11:35:48.727Z,5.98
2018-12-25T11:36:48.717Z,5.93
2018-12-25T11:37:48.690Z,5.89
2018-12-25T11:38:48.667Z,5.87
2018-12-25T11:39:49.710Z,5.86
2018-12-25T11:40:48.650Z,5.73
2018-12-25T11:41:48.667Z,5.80
2018-12-25T11:42:48.652Z,5.82
2018-12-25T11:43:48.667Z,5.87
2018-12-25T11:44:48.623Z,5.91
2018-12-25T11:45:48.596Z,5.98
2018-12-25T11:46:48.610Z,5.98
2018-12-25T11:47:48.592Z,5.98
2018-12-25T11:48:48.603Z,5.99
2018-12-25T11:49:48.577Z,6.02
2018-12-25T11:50:48.537Z,5.93
2018-12-25T11:51:48.558Z,6.01
2018-12-25T11:52:48.527Z,5.86
2018-12-25T11:53:48.515Z,5.84
2018-12-25T11:54:48.524Z,5.82
2018-12-25T11:55:48.518Z,5.86
2018-12-25T11:56:48.911Z,5.83
2018-12-25T11:57:48.590Z,5.87
2018-12-25T11:58:48.480Z,5.98
2018-12-25T11:59:48.465Z,6.07
2018-12-25T12:00:48.457Z,6.11
2018-12-25T12:01:49.387Z,6.05
2018-12-25T12:02:48.448Z,6.12
2018-12-25T12:03:48.407Z,6.07
2018-12-25T12:04:48.430Z,6.02
2018-12-25T12:05:48.493Z,6.08
2018-12-25T12:06:48.440Z,6.08
2018-12-25T12:07:48.393Z,6.14
2018-12-25T12:08:48.347Z,6.12
2018-12-25T12:09:48.352Z,6.11
2018-12-25T12:10:48.359Z,6.09
2018-12-25T12:11:48.339Z,6.05
2018-12-25T12:12:48.877Z,6.01
2018-12-25T12:13:48.304Z,6.01
2018-12-25T12:14:48.323Z,6.08
2018-12-25T12:15:48.298Z,6.07
2018-12-25T12:16:48.307Z,6.07
2018-12-25T12:17:48.901Z,6.05
2018-12-25T12:18:48.277Z,6.07
2018-12-25T12:19:48.251Z,6.16
2018-12-25T12:20:48.224Z,6.16
2018-12-25T12:21:48.263Z,6.19
2018-12-25T12:22:56.915Z,6.19
2018-12-25T12:23:55.369Z,6.17
2018-12-25T12:24:48.226Z,6.08
2018-12-25T12:25:48.190Z,6.16
2018-12-25T12:26:48.214Z,6.05
2018-12-25T12:27:48.150Z,6.04
2018-12-25T12:28:48.211Z,6.01
2018-12-25T12:29:48.137Z,6.04
2018-12-25T12:30:48.162Z,5.94
2018-12-25T12:31:48.147Z,5.99
2018-12-25T12:32:48.100Z,5.94
2018-12-25T12:33:48.094Z,5.93
2018-12-25T12:34:48.077Z,5.98
2018-12-25T12:35:48.091Z,5.93
2018-12-25T12:36:48.095Z,5.87
2018-12-25T12:37:48.079Z,5.90
2018-12-25T12:38:48.054Z,5.87
2018-12-25T12:39:48.028Z,5.90
2018-12-25T12:40:48.044Z,6.01
2018-12-25T12:41:48.058Z,6.01
2018-12-25T12:42:48.020Z,6.12
2018-12-25T12:43:47.989Z,6.07
2018-12-25T12:44:47.964Z,6.11
2018-12-25T12:45:47.971Z,6.04
2018-12-25T12:46:47.979Z,5.98
2018-12-25T12:47:47.969Z,5.98
2018-12-25T12:48:47.960Z,5.91
2018-12-25T12:49:47.932Z,5.91
2018-12-25T12:50:47.910Z,5.94
2018-12-25T12:51:47.919Z,5.90
2018-12-25T12:52:47.912Z,5.90
2018-12-25T12:53:47.904Z,5.89
2018-12-25T12:54:47.866Z,5.89
2018-12-25T12:55:47.855Z,5.84
2018-12-25T12:56:47.883Z,5.87
2018-12-25T12:57:55.946Z,5.79
2018-12-25T12:58:47.835Z,5.90
2018-12-25T12:59:47.833Z,5.80
2018-12-25T13:00:54.893Z,5.89
2018-12-25T13:01:47.874Z,5.83
2018-12-25T13:02:47.784Z,5.82
2018-12-25T13:03:47.777Z,5.86
2018-12-25T13:04:47.774Z,5.84
2018-12-25T13:05:47.786Z,5.80
2018-12-25T13:06:47.751Z,5.82
2018-12-25T13:07:47.765Z,5.80
2018-12-25T13:08:47.722Z,5.68
2018-12-25T13:09:47.727Z,5.76
2018-12-25T13:10:56.679Z,5.73
2018-12-25T13:11:55.793Z,5.84
2018-12-25T13:12:55.551Z,5.76
2018-12-25T13:13:47.658Z,5.86
2018-12-25T13:14:56.111Z,5.83
2018-12-25T13:15:47.651Z,5.82
2018-12-25T13:16:47.665Z,5.86
2018-12-25T13:17:47.708Z,5.86
2018-12-25T13:18:47.639Z,5.87
2018-12-25T13:19:47.605Z,5.86